createdAt,value
2022-12-20T00:01:25.621Z,9.05
2022-12-20T00:03:54.385Z,7.63
2022-12-20T00:06:21.963Z,12.93
2022-12-20T00:08:56.665Z,8.98
2022-12-20T00:11:24.636Z,6.78
2022-12-20T00:13:54.660Z,8.73
2022-12-20T00:16:23.611Z,10.95
2022-12-20T00:18:57.921Z,9.52
2022-12-20T00:21:25.194Z,10.48
2022-12-20T00:23:52.734Z,12.43
2022-12-20T00:26:21.890Z,10.60
2022-12-20T00:28:49.198Z,12.63
2022-12-20T00:31:17.777Z,13.15
2022-12-20T00:33:46.376Z,11.93
2022-12-20T00:36:13.889Z,17.63
2022-12-20T00:38:41.207Z,8.90
2022-12-20T00:41:08.572Z,6.97
2022-12-20T00:43:36.103Z,7.60
2022-12-20T00:46:03.476Z,12.48
2022-12-20T00:48:31.314Z,8.75
2022-12-20T00:51:03.566Z,7.60
2022-12-20T00:53:31.330Z,6.43
2022-12-20T00:55:58.830Z,8.65
2022-12-20T00:58:26.567Z,7.57
2022-12-20T01:00:56.495Z,8.70
2022-12-20T01:03:26.166Z,7.35
2022-12-20T01:05:59.324Z,9.75
2022-12-20T01:08:27.589Z,6.85
2022-12-20T01:11:06.633Z,12.45
2022-12-20T01:13:36.123Z,7.95
2022-12-20T01:16:08.760Z,13.02
2022-12-20T01:18:36.224Z,6.72
2022-12-20T01:21:08.182Z,9.52
2022-12-20T01:23:35.828Z,12.80
2022-12-20T01:26:04.940Z,6.22
2022-12-20T01:28:32.288Z,8.75
2022-12-20T01:31:00.162Z,7.07
2022-12-20T01:33:27.676Z,10.15
2022-12-20T01:35:59.877Z,9.48
2022-12-20T01:38:27.540Z,7.47
2022-12-20T01:40:55.834Z,15.90
2022-12-20T01:43:23.919Z,8.15
2022-12-20T01:45:51.275Z,11.10
2022-12-20T01:48:22.828Z,9.25
2022-12-20T01:50:50.048Z,12.85
2022-12-20T01:53:18.749Z,9.82
2022-12-20T01:55:47.887Z,6.03
2022-12-20T01:58:16.646Z,12.52
2022-12-20T02:00:43.900Z,10.60
2022-12-20T02:03:12.578Z,11.48
2022-12-20T02:05:42.190Z,11.55
2022-12-20T02:08:09.638Z,5.20
2022-12-20T02:10:58.528Z,9.77
2022-12-20T02:13:49.090Z,8.50
2022-12-20T02:16:22.129Z,11.95
2022-12-20T02:19:03.255Z,12.55
2022-12-20T02:21:39.796Z,9.73
2022-12-20T02:24:19.251Z,8.25
2022-12-20T02:27:01.467Z,11.40
2022-12-20T02:29:40.491Z,10.68
2022-12-20T02:32:22.484Z,7.22
2022-12-20T02:34:50.407Z,7.35
2022-12-20T02:37:18.025Z,8.18
2022-12-20T02:39:45.322Z,18.40
2022-12-20T02:42:13.878Z,12.40
2022-12-20T02:45:02.341Z,10.70
2022-12-20T02:47:57.061Z,7.75
2022-12-20T02:50:32.493Z,10.70
2022-12-20T02:52:59.713Z,12.82
2022-12-20T02:55:47.121Z,10.43
2022-12-20T02:58:28.979Z,9.32
2022-12-20T03:00:56.761Z,9.65
2022-12-20T03:03:24.795Z,9.52
2022-12-20T03:05:54.596Z,11.48
2022-12-20T03:08:22.091Z,12.23
2022-12-20T03:10:49.497Z,9.90
2022-12-20T03:13:16.975Z,13.05
2022-12-20T03:15:44.806Z,7.22
2022-12-20T03:18:12.249Z,8.95
2022-12-20T03:20:39.586Z,11.80
2022-12-20T03:23:07.037Z,6.35
2022-12-20T03:25:34.379Z,7.40
2022-12-20T03:28:01.617Z,9.48
2022-12-20T03:30:29.549Z,7.53
2022-12-20T03:32:56.964Z,6.97
2022-12-20T03:35:24.179Z,6.95
2022-12-20T03:37:51.562Z,9.23
2022-12-20T03:40:18.830Z,13.10
2022-12-20T03:42:46.590Z,7.90
2022-12-20T03:45:14.018Z,15.95
2022-12-20T03:47:41.261Z,10.20
2022-12-20T03:50:08.911Z,9.60
2022-12-20T03:52:36.341Z,9.77
2022-12-20T03:55:04.266Z,11.65
2022-12-20T03:57:31.560Z,8.80
2022-12-20T03:59:58.869Z,8.68
2022-12-20T04:02:26.416Z,12.38
2022-12-20T04:04:53.839Z,9.68
2022-12-20T04:07:21.210Z,9.18
2022-12-20T04:09:48.730Z,9.52
2022-12-20T04:12:16.014Z,10.82
2022-12-20T04:14:43.241Z,13.48
2022-12-20T04:17:10.457Z,8.80
2022-12-20T04:19:37.704Z,13.20
2022-12-20T04:22:06.269Z,9.38
2022-12-20T04:24:33.775Z,14.68
2022-12-20T04:27:00.983Z,9.23
2022-12-20T04:29:28.274Z,12.63
2022-12-20T04:31:55.603Z,11.15
2022-12-20T04:34:24.267Z,10.27
2022-12-20T04:36:51.562Z,9.20
2022-12-20T04:39:18.804Z,15.40
2022-12-20T04:41:46.113Z,11.63
2022-12-20T04:44:13.552Z,17.13
2022-12-20T04:46:41.105Z,5.28
2022-12-20T04:49:08.405Z,7.88
2022-12-20T04:51:35.957Z,18.35
2022-12-20T04:54:03.369Z,10.13
2022-12-20T04:56:31.306Z,12.00
2022-12-20T04:58:59.118Z,8.75
2022-12-20T05:01:26.675Z,11.25
2022-12-20T05:03:54.219Z,16.48
2022-12-20T05:06:21.572Z,12.40
2022-12-20T05:08:48.872Z,12.63
2022-12-20T05:11:16.457Z,14.02
2022-12-20T05:13:44.031Z,13.35
2022-12-20T05:16:11.565Z,16.25
2022-12-20T05:18:44.548Z,11.57
2022-12-20T05:21:34.243Z,12.50
2022-12-20T05:24:19.847Z,12.27
2022-12-20T05:26:47.199Z,14.75
2022-12-20T05:29:14.447Z,20.40
2022-12-20T05:31:41.829Z,24.13
2022-12-20T05:34:09.093Z,31.80
2022-12-20T05:36:36.387Z,30.67
2022-12-20T05:39:04.763Z,21.20
2022-12-20T05:41:32.258Z,16.52
2022-12-20T05:43:59.570Z,14.35
2022-12-20T05:46:26.901Z,13.88
2022-12-20T05:48:54.194Z,14.63
2022-12-20T05:51:27.170Z,34.53
2022-12-20T05:53:55.107Z,21.33
2022-12-20T05:56:22.315Z,25.50
2022-12-20T05:58:49.618Z,23.85
2022-12-20T06:01:16.872Z,24.88
2022-12-20T06:03:44.272Z,31.65
2022-12-20T06:06:14.934Z,26.23
2022-12-20T06:08:43.445Z,30.08
2022-12-20T06:11:12.937Z,33.83
2022-12-20T06:13:41.004Z,34.72
2022-12-20T06:16:08.350Z,20.42
2022-12-20T06:18:35.777Z,20.73
2022-12-20T06:21:03.087Z,30.67
2022-12-20T06:23:30.375Z,15.60
2022-12-20T06:25:58.088Z,21.95
2022-12-20T06:28:25.292Z,32.72
2022-12-20T06:30:56.724Z,24.02
2022-12-20T06:33:25.205Z,29.63
2022-12-20T06:35:52.717Z,24.95
2022-12-20T06:38:20.012Z,18.73
2022-12-20T06:40:47.237Z,10.55
2022-12-20T06:43:14.979Z,16.48
2022-12-20T06:45:42.926Z,16.67
2022-12-20T06:48:10.544Z,20.80
2022-12-20T06:50:38.932Z,11.65
2022-12-20T06:53:07.600Z,18.05
2022-12-20T06:55:34.881Z,21.23
2022-12-20T06:58:03.291Z,19.35
2022-12-20T07:00:30.810Z,24.48
2022-12-20T07:02:58.556Z,22.00
2022-12-20T07:05:25.956Z,33.97
2022-12-20T07:07:53.270Z,17.58
2022-12-20T07:10:20.488Z,19.33
2022-12-20T07:12:48.646Z,22.70
2022-12-20T07:15:17.048Z,27.42
2022-12-20T07:17:44.776Z,27.77
2022-12-20T07:20:14.121Z,39.88
2022-12-20T07:22:41.866Z,27.15
2022-12-20T07:25:09.687Z,28.63
2022-12-20T07:27:37.297Z,24.48
2022-12-20T07:30:05.236Z,24.80
2022-12-20T07:32:32.604Z,25.73
2022-12-20T07:34:59.845Z,38.75
2022-12-20T07:37:29.340Z,33.53
2022-12-20T07:39:56.656Z,37.33
2022-12-20T07:42:33.577Z,31.20
2022-12-20T07:45:03.875Z,40.15
2022-12-20T07:47:31.156Z,27.02
2022-12-20T07:49:58.424Z,20.70
2022-12-20T07:52:25.722Z,21.50
2022-12-20T07:54:55.055Z,21.08
2022-12-20T07:57:25.635Z,20.48
2022-12-20T07:59:54.809Z,24.80
2022-12-20T08:02:25.724Z,28.88
2022-12-20T08:04:53.492Z,33.83
2022-12-20T08:07:20.786Z,27.90
2022-12-20T08:09:48.146Z,33.50
2022-12-20T08:12:17.229Z,34.88
2022-12-20T08:14:44.687Z,29.05
2022-12-20T08:17:12.101Z,35.08
2022-12-20T08:19:39.341Z,39.70
2022-12-20T08:22:06.554Z,41.80
2022-12-20T08:24:34.076Z,43.20
2022-12-20T08:27:01.376Z,48.63
2022-12-20T08:29:28.747Z,34.08
2022-12-20T08:31:55.955Z,37.03
2022-12-20T08:34:23.171Z,39.20
2022-12-20T08:36:50.524Z,45.25
2022-12-20T08:39:17.786Z,42.50
2022-12-20T08:41:45.125Z,50.85
2022-12-20T08:44:12.348Z,24.77
2022-12-20T08:46:39.688Z,32.05
2022-12-20T08:49:07.046Z,34.95
2022-12-20T08:51:34.600Z,28.17
2022-12-20T08:54:02.789Z,23.98
2022-12-20T08:56:30.112Z,32.42
2022-12-20T08:58:57.616Z,25.50
2022-12-20T09:01:26.897Z,20.70
2022-12-20T09:03:54.805Z,15.05
2022-12-20T09:06:22.850Z,23.80
2022-12-20T09:08:50.224Z,19.73
2022-12-20T09:11:19.834Z,19.85
2022-12-20T09:13:48.079Z,16.55
2022-12-20T09:16:16.828Z,18.65
2022-12-20T09:18:44.094Z,26.20
2022-12-20T09:21:11.792Z,29.23
2022-12-20T09:23:39.720Z,28.08
2022-12-20T09:26:16.558Z,32.58
2022-12-20T09:28:44.318Z,18.77
2022-12-20T09:31:16.259Z,18.55
2022-12-20T09:33:43.641Z,22.15
2022-12-20T09:36:15.515Z,17.52
2022-12-20T09:38:42.867Z,26.27
2022-12-20T09:41:22.736Z,27.98
2022-12-20T09:43:51.088Z,27.05
2022-12-20T09:46:18.370Z,19.85
2022-12-20T09:48:45.658Z,18.65
2022-12-20T09:51:41.255Z,20.85
2022-12-20T09:54:46.852Z,24.30
2022-12-20T09:57:39.349Z,18.55
2022-12-20T10:00:17.478Z,18.02
2022-12-20T10:03:00.079Z,19.23
2022-12-20T10:05:44.092Z,24.45
2022-12-20T10:08:18.491Z,20.30
2022-12-20T10:10:57.125Z,15.98
2022-12-20T10:13:42.553Z,20.10
2022-12-20T10:16:47.768Z,16.70
2022-12-20T10:19:49.496Z,24.30
2022-12-20T10:22:17.546Z,24.75
2022-12-20T10:24:48.093Z,23.30
2022-12-20T10:27:20.055Z,23.80
2022-12-20T10:29:48.231Z,21.73
2022-12-20T10:32:17.768Z,20.73
2022-12-20T10:35:11.353Z,24.15
2022-12-20T10:37:41.263Z,17.77
2022-12-20T10:40:34.410Z,15.50
2022-12-20T10:43:20.086Z,14.02
2022-12-20T10:46:03.880Z,16.70
2022-12-20T10:48:36.105Z,15.48
2022-12-20T10:51:16.637Z,21.75
2022-12-20T10:53:57.228Z,14.63
2022-12-20T10:56:29.178Z,14.02
2022-12-20T10:59:02.248Z,14.85
2022-12-20T11:01:34.207Z,16.25
2022-12-20T11:04:02.464Z,13.70
2022-12-20T11:06:43.638Z,10.30
2022-12-20T11:09:21.524Z,15.10
2022-12-20T11:11:58.145Z,14.77
2022-12-20T11:14:25.474Z,14.27
2022-12-20T11:16:53.920Z,11.18
2022-12-20T11:19:31.728Z,12.70
2022-12-20T11:22:24.225Z,16.05
2022-12-20T11:25:23.064Z,14.07
2022-12-20T11:28:12.995Z,13.65
2022-12-20T11:30:54.543Z,14.77
2022-12-20T11:33:38.022Z,20.02
2022-12-20T11:36:27.322Z,12.73
2022-12-20T11:39:27.681Z,11.23
2022-12-20T11:42:09.558Z,10.95
2022-12-20T11:47:29.545Z,11.50
2022-12-20T11:49:56.895Z,12.02
2022-12-20T11:52:52.137Z,14.38
2022-12-20T11:55:34.018Z,13.20
2022-12-20T11:58:48.910Z,19.15
2022-12-20T12:01:18.524Z,13.98
2022-12-20T12:04:12.553Z,21.00
2022-12-20T12:06:45.971Z,19.58
2022-12-20T12:09:18.006Z,18.05
2022-12-20T12:12:09.165Z,21.88
2022-12-20T12:14:50.669Z,17.20
2022-12-20T12:17:40.142Z,19.88
2022-12-20T12:20:35.870Z,15.90
2022-12-20T12:23:13.669Z,15.38
2022-12-20T12:25:40.899Z,10.48
2022-12-20T12:28:11.052Z,14.13
2022-12-20T12:30:40.179Z,14.27
2022-12-20T12:33:13.944Z,11.30
2022-12-20T12:35:58.458Z,19.02
2022-12-20T12:38:31.853Z,14.25
2022-12-20T12:41:07.760Z,11.18
2022-12-20T12:43:57.811Z,20.40
2022-12-20T12:46:35.271Z,23.70
2022-12-20T12:49:24.722Z,14.05
2022-12-20T12:51:57.063Z,21.25
2022-12-20T12:54:38.337Z,16.80
2022-12-20T12:59:42.168Z,14.73
2022-12-20T13:02:16.042Z,18.63
2022-12-20T13:05:02.460Z,20.35
2022-12-20T13:07:35.424Z,16.27
2022-12-20T13:10:08.441Z,15.50
2022-12-20T13:12:39.018Z,17.00
2022-12-20T13:15:21.552Z,16.30
2022-12-20T13:17:52.985Z,12.02
2022-12-20T13:20:33.403Z,11.90
2022-12-20T13:23:13.125Z,23.63
2022-12-20T13:25:47.770Z,15.40
2022-12-20T13:28:24.414Z,21.58
2022-12-20T13:31:12.048Z,17.85
2022-12-20T13:33:49.588Z,16.30
2022-12-20T13:36:16.748Z,17.17
2022-12-20T13:38:47.077Z,13.85
2022-12-20T13:41:47.159Z,12.37
2022-12-20T13:44:14.451Z,13.40
2022-12-20T13:47:00.553Z,11.93
2022-12-20T13:49:39.071Z,11.40
2022-12-20T13:52:17.445Z,9.93
2022-12-20T13:54:46.298Z,12.68
2022-12-20T13:57:16.333Z,11.02
2022-12-20T13:59:48.133Z,13.23
2022-12-20T14:02:24.986Z,11.35
2022-12-20T14:05:04.073Z,12.27
2022-12-20T14:07:32.161Z,13.38
2022-12-20T14:10:01.514Z,9.90
2022-12-20T14:12:36.263Z,15.05
2022-12-20T14:15:29.421Z,9.32
2022-12-20T14:17:57.306Z,13.48
2022-12-20T14:20:25.836Z,13.27
2022-12-20T14:23:06.053Z,12.75
2022-12-20T14:25:39.313Z,17.88
2022-12-20T14:28:09.073Z,11.35
2022-12-20T14:30:41.491Z,10.50
2022-12-20T14:33:34.752Z,14.00
2022-12-20T14:36:19.265Z,13.52
2022-12-20T14:38:50.884Z,10.05
2022-12-20T14:41:27.155Z,11.70
2022-12-20T14:43:58.480Z,11.52
2022-12-20T14:46:25.764Z,10.32
2022-12-20T14:49:11.342Z,10.60
2022-12-20T14:51:38.975Z,12.10
2022-12-20T14:54:06.352Z,9.88
2022-12-20T14:56:33.588Z,10.38
2022-12-20T14:59:15.699Z,13.85
2022-12-20T15:01:44.568Z,16.15
2022-12-20T15:04:31.661Z,8.65
2022-12-20T15:07:02.451Z,10.68
2022-12-20T15:09:29.747Z,10.88
2022-12-20T15:11:57.029Z,12.27
2022-12-20T15:14:37.330Z,16.10
2022-12-20T15:17:09.723Z,13.80
2022-12-20T15:19:42.441Z,12.38
2022-12-20T15:22:14.490Z,10.50
2022-12-20T15:24:41.724Z,11.98
2022-12-20T15:27:15.686Z,9.38
2022-12-20T15:29:43.281Z,10.13
2022-12-20T15:32:16.379Z,13.18
2022-12-20T15:34:44.003Z,14.05
2022-12-20T15:37:18.370Z,13.18
2022-12-20T15:39:46.105Z,7.47
2022-12-20T15:42:17.675Z,11.77
2022-12-20T15:44:45.003Z,11.30
2022-12-20T15:47:15.869Z,10.00
2022-12-20T15:49:49.511Z,9.55
2022-12-20T15:52:21.947Z,11.82
2022-12-20T15:54:49.343Z,10.95
2022-12-20T15:57:16.598Z,9.50
2022-12-20T16:00:01.818Z,7.28
2022-12-20T16:02:31.303Z,10.02
2022-12-20T16:04:59.528Z,7.40
2022-12-20T16:07:27.912Z,12.25
2022-12-20T16:09:55.338Z,10.70
2022-12-20T16:12:23.697Z,9.65
2022-12-20T16:14:51.798Z,12.27
2022-12-20T16:17:19.133Z,16.95
2022-12-20T16:19:46.368Z,12.48
2022-12-20T16:22:19.654Z,9.90
2022-12-20T16:24:47.262Z,10.38
2022-12-20T16:27:14.571Z,9.52
2022-12-20T16:29:41.897Z,15.50
2022-12-20T16:32:16.334Z,16.40
2022-12-20T16:34:44.263Z,13.35
2022-12-20T16:37:12.013Z,15.68
2022-12-20T16:39:39.740Z,11.75
2022-12-20T16:42:22.251Z,26.13
2022-12-20T16:44:53.415Z,15.07
2022-12-20T16:47:20.755Z,18.38
2022-12-20T16:49:52.941Z,16.52
2022-12-20T16:52:21.924Z,19.65
2022-12-20T16:54:49.830Z,13.98
2022-12-20T16:57:17.214Z,15.10
2022-12-20T16:59:44.938Z,23.92
2022-12-20T17:02:33.030Z,24.13
2022-12-20T17:05:00.949Z,18.98
2022-12-20T17:07:28.397Z,19.88
2022-12-20T17:10:11.902Z,14.60
2022-12-20T17:12:39.319Z,16.95
2022-12-20T17:15:07.196Z,14.40
2022-12-20T17:17:34.970Z,13.32
2022-12-20T17:20:02.358Z,14.65
2022-12-20T17:22:29.952Z,10.68
2022-12-20T17:24:57.353Z,16.35
2022-12-20T17:27:24.921Z,16.73
2022-12-20T17:29:52.318Z,17.30
2022-12-20T17:32:21.170Z,13.02
2022-12-20T17:34:48.657Z,13.32
2022-12-20T17:37:18.785Z,20.95
2022-12-20T17:39:46.075Z,8.73
2022-12-20T17:42:13.772Z,9.70
2022-12-20T17:44:41.310Z,11.77
2022-12-20T17:47:08.734Z,15.27
2022-12-20T17:49:35.957Z,9.73
2022-12-20T17:52:04.090Z,9.02
2022-12-20T17:54:38.886Z,14.75
2022-12-20T17:57:16.719Z,14.50
2022-12-20T17:59:44.181Z,8.43
2022-12-20T18:02:25.345Z,10.05
2022-12-20T18:07:20.567Z,11.40
2022-12-20T18:09:48.400Z,17.52
2022-12-20T18:12:15.899Z,14.65
2022-12-20T18:14:43.184Z,12.13
2022-12-20T18:17:10.991Z,16.13
2022-12-20T18:19:38.633Z,11.18
2022-12-20T18:22:06.529Z,7.45
2022-12-20T18:24:33.920Z,9.45
2022-12-20T18:27:01.187Z,9.38
2022-12-20T18:29:29.662Z,11.35
2022-12-20T18:31:57.449Z,10.75
2022-12-20T18:34:26.246Z,13.98
2022-12-20T18:36:53.636Z,13.82
2022-12-20T18:39:20.952Z,11.45
2022-12-20T18:41:49.714Z,13.48
2022-12-20T18:44:17.159Z,17.90
2022-12-20T18:46:44.355Z,18.00
2022-12-20T18:49:11.611Z,13.48
2022-12-20T18:51:38.997Z,19.00
2022-12-20T18:54:07.492Z,23.13
2022-12-20T18:56:36.706Z,17.33
2022-12-20T18:59:10.965Z,22.35
2022-12-20T19:01:40.439Z,19.25
2022-12-20T19:04:08.233Z,15.05
2022-12-20T19:06:36.316Z,14.63
2022-12-20T19:09:05.676Z,15.00
2022-12-20T19:11:33.729Z,13.07
2022-12-20T19:14:01.471Z,11.75
2022-12-20T19:16:32.059Z,10.90
2022-12-20T19:19:00.395Z,15.32
2022-12-20T19:21:29.608Z,15.00
2022-12-20T19:23:58.677Z,18.27
2022-12-20T19:26:27.487Z,14.05
2022-12-20T19:28:54.953Z,10.75
2022-12-20T19:31:24.174Z,12.77
2022-12-20T19:33:56.265Z,10.27
2022-12-20T19:36:25.084Z,12.13
2022-12-20T19:38:59.576Z,10.43
2022-12-20T19:41:28.918Z,8.68
2022-12-20T19:43:56.724Z,8.65
2022-12-20T19:46:29.328Z,13.50
2022-12-20T19:48:58.146Z,8.45
2022-12-20T19:51:25.812Z,8.65
2022-12-20T19:53:53.817Z,10.20
2022-12-20T19:56:23.738Z,11.65
2022-12-20T19:58:51.484Z,10.48
2022-12-20T20:01:19.309Z,11.35
2022-12-20T20:03:46.968Z,9.27
2022-12-20T20:06:14.337Z,7.15
2022-12-20T20:08:44.064Z,7.90
2022-12-20T20:11:14.991Z,13.75
2022-12-20T20:13:46.944Z,12.38
2022-12-20T20:16:22.214Z,11.20
2022-12-20T20:18:54.803Z,9.80
2022-12-20T20:21:24.470Z,9.90
2022-12-20T20:23:55.362Z,11.93
2022-12-20T20:26:28.194Z,8.88
2022-12-20T20:28:57.624Z,9.07
2022-12-20T20:31:26.157Z,9.75
2022-12-20T20:33:53.797Z,7.75
2022-12-20T20:36:22.397Z,11.02
2022-12-20T20:38:50.736Z,13.20
2022-12-20T20:41:18.125Z,14.00
2022-12-20T20:43:45.416Z,12.50
2022-12-20T20:46:13.864Z,12.40
2022-12-20T20:48:41.265Z,10.15
2022-12-20T20:51:08.775Z,9.82
2022-12-20T20:53:36.304Z,10.90
2022-12-20T20:56:04.892Z,9.15
2022-12-20T20:58:32.887Z,9.65
2022-12-20T21:01:01.082Z,6.25
2022-12-20T21:03:28.991Z,5.55
2022-12-20T21:08:43.747Z,11.07
2022-12-20T21:11:11.439Z,7.95
2022-12-20T21:13:38.755Z,10.27
2022-12-20T21:16:16.007Z,10.45
2022-12-20T21:18:43.674Z,9.55
2022-12-20T21:21:11.984Z,10.90
2022-12-20T21:23:39.959Z,10.30
2022-12-20T21:26:07.810Z,11.13
2022-12-20T21:28:35.688Z,11.70
2022-12-20T21:31:05.122Z,8.23
2022-12-20T21:33:33.430Z,10.50
2022-12-20T21:36:01.754Z,10.68
2022-12-20T21:38:29.258Z,11.13
2022-12-20T21:41:01.224Z,8.95
2022-12-20T21:43:28.665Z,10.48
2022-12-20T21:45:56.544Z,7.55
2022-12-20T21:48:24.025Z,9.40
2022-12-20T21:50:58.904Z,13.27
2022-12-20T21:53:26.257Z,10.23
2022-12-20T21:55:55.554Z,11.85
2022-12-20T21:58:25.473Z,8.88
2022-12-20T22:00:55.115Z,14.90
2022-12-20T22:03:23.591Z,10.85
2022-12-20T22:05:54.493Z,10.50
2022-12-20T22:08:24.252Z,9.70
2022-12-20T22:11:03.508Z,12.73
2022-12-20T22:13:35.707Z,9.38
2022-12-20T22:16:12.219Z,9.63
2022-12-20T22:18:39.785Z,7.00
2022-12-20T22:21:08.232Z,14.57
2022-12-20T22:23:35.544Z,14.90
2022-12-20T22:26:03.854Z,9.30
2022-12-20T22:28:31.127Z,5.35
2022-12-20T22:30:58.401Z,6.55
2022-12-20T22:33:27.310Z,7.60
2022-12-20T22:35:54.833Z,13.38
2022-12-20T22:38:22.116Z,8.38
2022-12-20T22:40:49.770Z,7.28
2022-12-20T22:43:17.246Z,10.77
2022-12-20T22:45:44.650Z,6.75
2022-12-20T22:48:12.130Z,8.75
2022-12-20T22:50:39.380Z,6.20
2022-12-20T22:53:06.804Z,8.63
2022-12-20T22:55:34.762Z,7.45
2022-12-20T22:58:02.039Z,9.38
2022-12-20T23:00:29.422Z,11.23
2022-12-20T23:02:56.843Z,7.60
2022-12-20T23:05:24.266Z,9.07
2022-12-20T23:07:51.791Z,11.15
2022-12-20T23:10:37.614Z,6.82
2022-12-20T23:13:23.551Z,7.35
2022-12-20T23:15:50.874Z,9.93
2022-12-20T23:18:18.116Z,11.35
2022-12-20T23:21:08.515Z,7.00
2022-12-20T23:23:35.787Z,9.53
2022-12-20T23:26:11.223Z,8.70
2022-12-20T23:28:38.471Z,4.88
2022-12-20T23:31:06.333Z,6.88
2022-12-20T23:33:33.738Z,5.70
2022-12-20T23:36:01.825Z,7.90
2022-12-20T23:38:33.264Z,7.60
2022-12-20T23:43:30.759Z,5.57
2022-12-20T23:46:30.558Z,12.25
2022-12-20T23:48:57.871Z,9.18
2022-12-20T23:51:25.132Z,5.35
2022-12-20T23:53:52.804Z,9.13
2022-12-20T23:56:21.106Z,6.05
2022-12-20T23:58:53.271Z,11.20
